This is the latest recevied weather packets stored in our database for station/object KC8ZBC. If no packets are shown the sender has not sent any weather packets the latest 10 day(s).
| Time | Temp. | Humidity | Pressure | Rain* | Wind** | Luminosity | Snow |
|---|---|---|---|---|---|---|---|
| 1778015298 | 12.22° C | 58% | 982.7 hPa | 0 mm | - | 62 W/m² | - |
| 1778014995 | 12.22° C | 58% | 982.7 hPa | 0 mm | - | 56 W/m² | - |
| 1778014692 | 12.22° C | 59% | 982.5 hPa | 0 mm | - | 59 W/m² | - |
| 1778014390 | 12.22° C | 59% | 982.5 hPa | 0 mm | - | 56 W/m² | - |
| 1778014087 | 12.22° C | 61% | 982.5 hPa | 0 mm | - | 56 W/m² | - |
| 1778013785 | 12.22° C | 63% | 982.5 hPa | 0 mm | - | 60 W/m² | - |
| 1778013481 | 12.22° C | 64% | 982.3 hPa | 0 mm | - | 59 W/m² | - |
| 1778013178 | 12.22° C | 65% | 982.5 hPa | 0 mm | - | 56 W/m² | - |
| 1778012874 | 12.22° C | 66% | 982.4 hPa | 0 mm | - | 57 W/m² | - |
| 1778012571 | 12.22° C | 65% | 982.5 hPa | 0 mm | - | 54 W/m² | - |
| 1778012267 | 12.22° C | 66% | 982.5 hPa | 0 mm | - | 60 W/m² | - |
| 1778011965 | 12.22° C | 65% | 982.3 hPa | 0 mm | - | 91 W/m² | - |
| 1778011663 | 12.22° C | 64% | 982.5 hPa | 0 mm | - | 57 W/m² | - |
| 1778011360 | 12.22° C | 64% | 982.5 hPa | 0 mm | - | 62 W/m² | - |
| 1778011055 | 12.22° C | 63% | 982.6 hPa | 0 mm | - | 76 W/m² | - |
| 1778010753 | 12.78° C | 63% | 982.5 hPa | 0 mm | - | 78 W/m² | - |
| 1778010450 | 12.22° C | 63% | 982.6 hPa | 0 mm | - | 88 W/m² | - |
| 1778010146 | 12.22° C | 63% | 982.7 hPa | 0 mm | - | 89 W/m² | - |
| 1778009842 | 12.22° C | 63% | 982.7 hPa | 0 mm | - | 78 W/m² | - |
| 1778009540 | 12.22° C | 63% | 982.9 hPa | 0 mm | - | 64 W/m² | - |
| 1778009238 | 12.22° C | 63% | 982.7 hPa | 0 mm | - | 66 W/m² | - |
| 1778008936 | 12.78° C | 64% | 982.8 hPa | 0 mm | - | 65 W/m² | - |
| 1778008634 | 12.78° C | 65% | 982.6 hPa | 0 mm | - | 89 W/m² | - |
| 1778008332 | 12.22° C | 65% | 982.3 hPa | 0 mm | - | 121 W/m² | - |
| 1778008028 | 12.22° C | 64% | 982.6 hPa | 0 mm | - | 94 W/m² | - |
* Rain latest hour (hover to see other rain measurements)
** Current wind speed in m/s (hover to see current wind gust speed)